Chauncey, Illinois
Current Conditions -  °F | °C
As of 6:53 PM on Friday 31 Oct 2014 (Local Time) from KLWV Reporting Station
Broken Clouds Broken Clouds  
Wind Chill: 30°   Ceiling: 4900
Heat Index: 41°   Visibility: 10mi
Dew Point: 26°   Wind: 28mph
Humidity: 55%   Direction: 330°NNW
Pressure: 30.19"   Gusts: 38mph
Location:  38.793°N, 87.8326°W
Report Text: KLWV 312353Z AUTO 33024G33KT 10SM BKN049 05/M03 A3019 RMK AO2 PK WND 34037/2326 SLP227 60000 T00501033 10067 20033 52015
Loading
Personal Weather Stations






























Interactive Weather Map
Tropical Storm Tracking
New forecast layout! Learn more

10-Day Weather Forecast

Advertisements
Track Severe Weather on mobile